sensor_id;sensor_type;location;lat;lon;timestamp;temperature;humidity
24678;DHT22;12800;53.094;8.778;2023-01-29T00:02:14;4.50;81.00
24678;DHT22;12800;53.094;8.778;2023-01-29T00:04:40;4.50;81.00
24678;DHT22;12800;53.094;8.778;2023-01-29T00:07:05;4.50;81.10
24678;DHT22;12800;53.094;8.778;2023-01-29T00:09:31;4.50;81.20
24678;DHT22;12800;53.094;8.778;2023-01-29T00:11:56;4.50;81.20
24678;DHT22;12800;53.094;8.778;2023-01-29T00:14:22;4.50;81.20
24678;DHT22;12800;53.094;8.778;2023-01-29T00:16:47;4.50;81.20
24678;DHT22;12800;53.094;8.778;2023-01-29T00:19:13;4.50;81.20
24678;DHT22;12800;53.094;8.778;2023-01-29T00:21:39;4.50;81.20
24678;DHT22;12800;53.094;8.778;2023-01-29T00:24:04;4.50;81.20
24678;DHT22;12800;53.094;8.778;2023-01-29T00:26:30;4.50;81.20
24678;DHT22;12800;53.094;8.778;2023-01-29T00:28:56;4.50;81.20
24678;DHT22;12800;53.094;8.778;2023-01-29T00:31:23;4.50;81.20
24678;DHT22;12800;53.094;8.778;2023-01-29T00:33:49;4.50;81.20
24678;DHT22;12800;53.094;8.778;2023-01-29T00:36:17;4.50;81.20
24678;DHT22;12800;53.094;8.778;2023-01-29T00:38:43;4.50;81.20
24678;DHT22;12800;53.094;8.778;2023-01-29T00:41:14;4.60;81.30
24678;DHT22;12800;53.094;8.778;2023-01-29T00:44:00;4.60;81.20
24678;DHT22;12800;53.094;8.778;2023-01-29T00:46:44;4.60;81.20
24678;DHT22;12800;53.094;8.778;2023-01-29T00:49:10;4.60;81.10
24678;DHT22;12800;53.094;8.778;2023-01-29T00:51:37;4.60;81.90
24678;DHT22;12800;53.094;8.778;2023-01-29T00:54:03;4.50;81.10
24678;DHT22;12800;53.094;8.778;2023-01-29T00:56:32;4.60;81.10
24678;DHT22;12800;53.094;8.778;2023-01-29T00:58:57;4.50;81.00
24678;DHT22;12800;53.094;8.778;2023-01-29T01:01:23;4.60;81.10
24678;DHT22;12800;53.094;8.778;2023-01-29T01:04:09;4.60;81.10
24678;DHT22;12800;53.094;8.778;2023-01-29T01:06:37;4.60;81.00
24678;DHT22;12800;53.094;8.778;2023-01-29T01:09:07;4.60;81.00
24678;DHT22;12800;53.094;8.778;2023-01-29T01:11:51;4.60;81.10
24678;DHT22;12800;53.094;8.778;2023-01-29T01:14:18;4.60;81.10
24678;DHT22;12800;53.094;8.778;2023-01-29T01:16:44;4.60;81.00
24678;DHT22;12800;53.094;8.778;2023-01-29T01:19:11;4.60;80.90
24678;DHT22;12800;53.094;8.778;2023-01-29T01:21:37;4.60;80.90
24678;DHT22;12800;53.094;8.778;2023-01-29T01:24:02;4.60;80.90
24678;DHT22;12800;53.094;8.778;2023-01-29T01:26:33;4.60;80.90
24678;DHT22;12800;53.094;8.778;2023-01-29T01:28:59;4.60;80.90
24678;DHT22;12800;53.094;8.778;2023-01-29T01:31:25;4.60;80.90
24678;DHT22;12800;53.094;8.778;2023-01-29T01:33:50;4.60;80.90
24678;DHT22;12800;53.094;8.778;2023-01-29T01:36:18;4.70;81.00
24678;DHT22;12800;53.094;8.778;2023-01-29T01:38:44;4.70;80.90
24678;DHT22;12800;53.094;8.778;2023-01-29T01:41:15;4.60;81.70
24678;DHT22;12800;53.094;8.778;2023-01-29T01:43:56;4.60;81.00
24678;DHT22;12800;53.094;8.778;2023-01-29T01:46:24;4.60;81.10
24678;DHT22;12800;53.094;8.778;2023-01-29T01:49:00;4.70;81.20
24678;DHT22;12800;53.094;8.778;2023-01-29T01:51:29;4.70;81.10
24678;DHT22;12800;53.094;8.778;2023-01-29T01:54:07;4.70;81.20
24678;DHT22;12800;53.094;8.778;2023-01-29T01:56:39;4.70;81.40
24678;DHT22;12800;53.094;8.778;2023-01-29T01:59:09;4.70;81.40
24678;DHT22;12800;53.094;8.778;2023-01-29T02:01:37;4.70;81.40
24678;DHT22;12800;53.094;8.778;2023-01-29T02:04:11;4.70;81.40
24678;DHT22;12800;53.094;8.778;2023-01-29T02:06:58;4.70;81.40
24678;DHT22;12800;53.094;8.778;2023-01-29T02:09:53;4.70;81.30
24678;DHT22;12800;53.094;8.778;2023-01-29T02:12:22;4.70;81.20
24678;DHT22;12800;53.094;8.778;2023-01-29T02:14:50;4.70;81.30
24678;DHT22;12800;53.094;8.778;2023-01-29T02:17:18;4.70;81.20
24678;DHT22;12800;53.094;8.778;2023-01-29T02:20:06;4.70;81.20
24678;DHT22;12800;53.094;8.778;2023-01-29T02:39:15;4.70;80.90
24678;DHT22;12800;53.094;8.778;2023-01-29T02:41:54;4.70;80.80
24678;DHT22;12800;53.094;8.778;2023-01-29T02:44:36;4.70;80.80
24678;DHT22;12800;53.094;8.778;2023-01-29T02:55:10;4.70;80.90
24678;DHT22;12800;53.094;8.778;2023-01-29T02:57:39;4.70;80.90
24678;DHT22;12800;53.094;8.778;2023-01-29T03:08:26;4.80;80.80
24678;DHT22;12800;53.094;8.778;2023-01-29T03:11:03;4.80;80.80
24678;DHT22;12800;53.094;8.778;2023-01-29T03:13:39;4.80;80.80
24678;DHT22;12800;53.094;8.778;2023-01-29T03:16:17;4.80;80.80
24678;DHT22;12800;53.094;8.778;2023-01-29T03:18:56;4.80;80.80
24678;DHT22;12800;53.094;8.778;2023-01-29T03:21:31;4.70;80.70
24678;DHT22;12800;53.094;8.778;2023-01-29T03:24:23;4.70;80.60
24678;DHT22;12800;53.094;8.778;2023-01-29T03:27:11;4.70;80.70
24678;DHT22;12800;53.094;8.778;2023-01-29T03:29:58;4.70;80.70
24678;DHT22;12800;53.094;8.778;2023-01-29T03:32:43;4.70;80.70
24678;DHT22;12800;53.094;8.778;2023-01-29T03:35:13;4.60;80.70
24678;DHT22;12800;53.094;8.778;2023-01-29T03:38:00;4.60;80.80
24678;DHT22;12800;53.094;8.778;2023-01-29T03:40:28;4.60;80.90
24678;DHT22;12800;53.094;8.778;2023-01-29T03:46:04;4.60;81.00
24678;DHT22;12800;53.094;8.778;2023-01-29T03:48:48;4.60;81.10
24678;DHT22;12800;53.094;8.778;2023-01-29T03:56:55;4.60;81.90
24678;DHT22;12800;53.094;8.778;2023-01-29T03:59:33;4.50;81.10
24678;DHT22;12800;53.094;8.778;2023-01-29T04:02:03;4.50;81.10
24678;DHT22;12800;53.094;8.778;2023-01-29T04:04:32;4.50;81.20
24678;DHT22;12800;53.094;8.778;2023-01-29T04:07:11;4.50;81.20
24678;DHT22;12800;53.094;8.778;2023-01-29T04:09:45;4.50;81.10
24678;DHT22;12800;53.094;8.778;2023-01-29T04:12:14;4.50;81.20
24678;DHT22;12800;53.094;8.778;2023-01-29T04:14:41;4.50;81.30
24678;DHT22;12800;53.094;8.778;2023-01-29T04:17:12;4.50;81.30
24678;DHT22;12800;53.094;8.778;2023-01-29T04:19:39;4.50;81.30
24678;DHT22;12800;53.094;8.778;2023-01-29T04:22:11;4.40;81.20
24678;DHT22;12800;53.094;8.778;2023-01-29T04:24:39;4.40;81.30
24678;DHT22;12800;53.094;8.778;2023-01-29T04:27:22;4.40;81.40
24678;DHT22;12800;53.094;8.778;2023-01-29T04:30:01;4.40;81.40
24678;DHT22;12800;53.094;8.778;2023-01-29T04:32:51;4.40;81.40
24678;DHT22;12800;53.094;8.778;2023-01-29T04:46:53;4.40;81.80
24678;DHT22;12800;53.094;8.778;2023-01-29T04:52:27;4.40;81.80
24678;DHT22;12800;53.094;8.778;2023-01-29T04:55:18;4.30;81.70
24678;DHT22;12800;53.094;8.778;2023-01-29T04:57:59;4.40;81.90
24678;DHT22;12800;53.094;8.778;2023-01-29T05:00:34;4.30;81.90
24678;DHT22;12800;53.094;8.778;2023-01-29T05:03:02;4.30;81.80
24678;DHT22;12800;53.094;8.778;2023-01-29T05:05:29;4.30;82.00
24678;DHT22;12800;53.094;8.778;2023-01-29T05:07:56;4.30;82.00
24678;DHT22;12800;53.094;8.778;2023-01-29T05:10:24;4.30;82.10
24678;DHT22;12800;53.094;8.778;2023-01-29T05:12:56;4.30;82.20
24678;DHT22;12800;53.094;8.778;2023-01-29T05:15:36;4.30;82.20
24678;DHT22;12800;53.094;8.778;2023-01-29T05:18:03;4.40;82.30
24678;DHT22;12800;53.094;8.778;2023-01-29T05:20:34;4.40;82.40
24678;DHT22;12800;53.094;8.778;2023-01-29T05:23:00;4.40;82.40
24678;DHT22;12800;53.094;8.778;2023-01-29T05:25:31;4.40;82.40
24678;DHT22;12800;53.094;8.778;2023-01-29T05:27:57;4.40;82.40
24678;DHT22;12800;53.094;8.778;2023-01-29T05:30:37;4.50;82.50
24678;DHT22;12800;53.094;8.778;2023-01-29T05:33:08;4.50;82.40
24678;DHT22;12800;53.094;8.778;2023-01-29T05:35:35;4.50;82.50
24678;DHT22;12800;53.094;8.778;2023-01-29T05:38:01;4.50;82.50
24678;DHT22;12800;53.094;8.778;2023-01-29T05:40:27;4.50;82.50
24678;DHT22;12800;53.094;8.778;2023-01-29T05:42:52;4.60;82.60
24678;DHT22;12800;53.094;8.778;2023-01-29T05:45:18;4.60;82.70
24678;DHT22;12800;53.094;8.778;2023-01-29T05:47:45;4.60;82.80
24678;DHT22;12800;53.094;8.778;2023-01-29T05:50:11;4.60;83.80
24678;DHT22;12800;53.094;8.778;2023-01-29T05:52:37;4.60;83.20
24678;DHT22;12800;53.094;8.778;2023-01-29T05:55:03;4.70;83.50
24678;DHT22;12800;53.094;8.778;2023-01-29T05:57:29;4.70;83.80
24678;DHT22;12800;53.094;8.778;2023-01-29T05:59:54;4.70;84.00
24678;DHT22;12800;53.094;8.778;2023-01-29T06:02:20;4.70;85.10
24678;DHT22;12800;53.094;8.778;2023-01-29T06:04:45;4.70;84.40
24678;DHT22;12800;53.094;8.778;2023-01-29T06:07:11;4.70;84.70
24678;DHT22;12800;53.094;8.778;2023-01-29T06:09:37;4.70;85.00
24678;DHT22;12800;53.094;8.778;2023-01-29T06:12:02;4.70;85.10
24678;DHT22;12800;53.094;8.778;2023-01-29T06:14:30;4.70;85.30
24678;DHT22;12800;53.094;8.778;2023-01-29T06:16:56;4.80;85.50
24678;DHT22;12800;53.094;8.778;2023-01-29T06:19:22;4.80;85.60
24678;DHT22;12800;53.094;8.778;2023-01-29T06:21:47;4.80;85.60
24678;DHT22;12800;53.094;8.778;2023-01-29T06:24:13;4.80;85.60
24678;DHT22;12800;53.094;8.778;2023-01-29T06:26:39;4.80;85.60
24678;DHT22;12800;53.094;8.778;2023-01-29T06:29:04;4.80;85.60
24678;DHT22;12800;53.094;8.778;2023-01-29T06:31:30;4.80;86.50
24678;DHT22;12800;53.094;8.778;2023-01-29T06:33:56;4.80;85.70
24678;DHT22;12800;53.094;8.778;2023-01-29T06:36:22;4.90;85.80
24678;DHT22;12800;53.094;8.778;2023-01-29T06:38:47;4.90;85.80
24678;DHT22;12800;53.094;8.778;2023-01-29T06:41:16;4.90;85.90
24678;DHT22;12800;53.094;8.778;2023-01-29T06:43:45;4.90;85.90
24678;DHT22;12800;53.094;8.778;2023-01-29T06:46:12;4.90;85.90
24678;DHT22;12800;53.094;8.778;2023-01-29T06:48:38;4.90;86.70
24678;DHT22;12800;53.094;8.778;2023-01-29T06:51:05;5.00;86.00
24678;DHT22;12800;53.094;8.778;2023-01-29T06:53:32;5.00;86.00
24678;DHT22;12800;53.094;8.778;2023-01-29T06:55:58;4.90;85.80
24678;DHT22;12800;53.094;8.778;2023-01-29T06:58:24;5.00;86.00
24678;DHT22;12800;53.094;8.778;2023-01-29T07:00:50;5.00;86.00
24678;DHT22;12800;53.094;8.778;2023-01-29T07:03:16;5.00;86.00
24678;DHT22;12800;53.094;8.778;2023-01-29T07:05:41;5.00;86.00
24678;DHT22;12800;53.094;8.778;2023-01-29T07:08:07;5.00;86.10
24678;DHT22;12800;53.094;8.778;2023-01-29T07:10:34;5.00;86.10
24678;DHT22;12800;53.094;8.778;2023-01-29T07:13:00;5.00;86.10
24678;DHT22;12800;53.094;8.778;2023-01-29T07:15:26;5.00;86.00
24678;DHT22;12800;53.094;8.778;2023-01-29T07:17:59;5.00;86.10
24678;DHT22;12800;53.094;8.778;2023-01-29T07:20:26;5.00;86.00
24678;DHT22;12800;53.094;8.778;2023-01-29T07:22:52;5.00;85.90
24678;DHT22;12800;53.094;8.778;2023-01-29T07:25:19;5.00;85.90
24678;DHT22;12800;53.094;8.778;2023-01-29T07:27:44;5.00;86.70
24678;DHT22;12800;53.094;8.778;2023-01-29T07:30:10;5.00;85.90
24678;DHT22;12800;53.094;8.778;2023-01-29T07:32:36;5.00;85.80
24678;DHT22;12800;53.094;8.778;2023-01-29T07:35:02;5.00;85.80
24678;DHT22;12800;53.094;8.778;2023-01-29T07:37:27;5.00;85.70
24678;DHT22;12800;53.094;8.778;2023-01-29T07:39:53;5.00;85.70
24678;DHT22;12800;53.094;8.778;2023-01-29T07:42:18;5.00;85.70
24678;DHT22;12800;53.094;8.778;2023-01-29T07:44:44;5.00;85.70
24678;DHT22;12800;53.094;8.778;2023-01-29T07:47:10;5.00;85.70
24678;DHT22;12800;53.094;8.778;2023-01-29T07:49:36;5.00;86.50
24678;DHT22;12800;53.094;8.778;2023-01-29T07:52:02;5.00;85.80
24678;DHT22;12800;53.094;8.778;2023-01-29T07:54:27;5.00;85.90
24678;DHT22;12800;53.094;8.778;2023-01-29T07:56:53;5.00;85.90
24678;DHT22;12800;53.094;8.778;2023-01-29T07:59:18;5.00;85.90
24678;DHT22;12800;53.094;8.778;2023-01-29T08:01:44;5.10;85.90
24678;DHT22;12800;53.094;8.778;2023-01-29T08:04:09;5.10;86.00
24678;DHT22;12800;53.094;8.778;2023-01-29T08:06:35;5.10;85.90
24678;DHT22;12800;53.094;8.778;2023-01-29T08:09:01;5.20;85.90
24678;DHT22;12800;53.094;8.778;2023-01-29T08:11:27;5.20;85.90
24678;DHT22;12800;53.094;8.778;2023-01-29T08:13:52;5.20;85.80
24678;DHT22;12800;53.094;8.778;2023-01-29T08:16:18;5.20;85.70
24678;DHT22;12800;53.094;8.778;2023-01-29T08:18:44;5.20;85.70
24678;DHT22;12800;53.094;8.778;2023-01-29T08:21:12;5.20;85.70
24678;DHT22;12800;53.094;8.778;2023-01-29T08:23:37;5.30;85.60
24678;DHT22;12800;53.094;8.778;2023-01-29T08:26:04;5.30;85.50
24678;DHT22;12800;53.094;8.778;2023-01-29T08:28:29;5.30;85.40
24678;DHT22;12800;53.094;8.778;2023-01-29T08:30:55;5.30;85.40
24678;DHT22;12800;53.094;8.778;2023-01-29T08:33:21;5.30;85.30
24678;DHT22;12800;53.094;8.778;2023-01-29T08:35:50;5.40;85.30
24678;DHT22;12800;53.094;8.778;2023-01-29T08:38:16;5.40;85.10
24678;DHT22;12800;53.094;8.778;2023-01-29T08:40:42;5.40;85.00
24678;DHT22;12800;53.094;8.778;2023-01-29T08:43:10;5.40;84.80
24678;DHT22;12800;53.094;8.778;2023-01-29T08:45:39;5.40;84.70
24678;DHT22;12800;53.094;8.778;2023-01-29T08:48:06;5.40;84.80
24678;DHT22;12800;53.094;8.778;2023-01-29T08:50:32;5.50;84.70
24678;DHT22;12800;53.094;8.778;2023-01-29T08:53:00;5.50;84.50
24678;DHT22;12800;53.094;8.778;2023-01-29T08:55:27;5.50;84.50
24678;DHT22;12800;53.094;8.778;2023-01-29T08:57:53;5.50;84.30
24678;DHT22;12800;53.094;8.778;2023-01-29T09:00:19;5.50;84.10
24678;DHT22;12800;53.094;8.778;2023-01-29T09:02:44;5.50;83.90
24678;DHT22;12800;53.094;8.778;2023-01-29T09:05:10;5.50;83.80
24678;DHT22;12800;53.094;8.778;2023-01-29T09:07:36;5.60;83.90
24678;DHT22;12800;53.094;8.778;2023-01-29T09:10:01;5.60;83.80
24678;DHT22;12800;53.094;8.778;2023-01-29T09:12:27;5.60;84.40
24678;DHT22;12800;53.094;8.778;2023-01-29T09:14:53;5.60;83.50
24678;DHT22;12800;53.094;8.778;2023-01-29T09:17:18;5.60;83.40
24678;DHT22;12800;53.094;8.778;2023-01-29T09:19:44;5.70;83.30
24678;DHT22;12800;53.094;8.778;2023-01-29T09:22:10;5.70;83.20
24678;DHT22;12800;53.094;8.778;2023-01-29T09:24:35;5.70;83.00
24678;DHT22;12800;53.094;8.778;2023-01-29T09:27:01;5.70;82.90
24678;DHT22;12800;53.094;8.778;2023-01-29T09:29:27;5.80;82.80
24678;DHT22;12800;53.094;8.778;2023-01-29T09:31:52;5.80;82.70
24678;DHT22;12800;53.094;8.778;2023-01-29T09:34:18;5.80;82.40
24678;DHT22;12800;53.094;8.778;2023-01-29T09:36:43;5.80;82.30
24678;DHT22;12800;53.094;8.778;2023-01-29T09:39:09;5.80;82.40
24678;DHT22;12800;53.094;8.778;2023-01-29T09:41:42;5.80;82.20
24678;DHT22;12800;53.094;8.778;2023-01-29T09:44:23;5.80;82.20
24678;DHT22;12800;53.094;8.778;2023-01-29T09:46:54;5.80;82.00
24678;DHT22;12800;53.094;8.778;2023-01-29T09:49:27;5.80;82.00
24678;DHT22;12800;53.094;8.778;2023-01-29T09:52:09;5.80;82.00
24678;DHT22;12800;53.094;8.778;2023-01-29T09:54:47;5.80;81.90
24678;DHT22;12800;53.094;8.778;2023-01-29T09:57:21;5.80;81.80
24678;DHT22;12800;53.094;8.778;2023-01-29T09:59:48;5.80;82.10
24678;DHT22;12800;53.094;8.778;2023-01-29T10:05:12;5.80;82.00
24678;DHT22;12800;53.094;8.778;2023-01-29T10:07:55;5.90;81.90
24678;DHT22;12800;53.094;8.778;2023-01-29T10:10:54;5.90;81.70
24678;DHT22;12800;53.094;8.778;2023-01-29T10:13:40;5.90;81.60
24678;DHT22;12800;53.094;8.778;2023-01-29T10:16:30;6.00;81.60
24678;DHT22;12800;53.094;8.778;2023-01-29T10:21:51;6.00;81.40
24678;DHT22;12800;53.094;8.778;2023-01-29T10:24:30;6.10;81.50
24678;DHT22;12800;53.094;8.778;2023-01-29T10:27:00;6.10;81.30
24678;DHT22;12800;53.094;8.778;2023-01-29T10:29:27;6.10;81.20
24678;DHT22;12800;53.094;8.778;2023-01-29T10:31:57;6.20;81.20
24678;DHT22;12800;53.094;8.778;2023-01-29T10:37:23;6.20;80.90
24678;DHT22;12800;53.094;8.778;2023-01-29T10:39:50;6.30;80.80
24678;DHT22;12800;53.094;8.778;2023-01-29T10:48:01;6.30;80.60
24678;DHT22;12800;53.094;8.778;2023-01-29T10:50:51;6.30;80.50
24678;DHT22;12800;53.094;8.778;2023-01-29T10:56:32;6.30;80.30
24678;DHT22;12800;53.094;8.778;2023-01-29T10:59:31;6.30;80.20
24678;DHT22;12800;53.094;8.778;2023-01-29T11:01:58;6.40;80.20
24678;DHT22;12800;53.094;8.778;2023-01-29T11:04:25;6.40;80.00
24678;DHT22;12800;53.094;8.778;2023-01-29T11:06:52;6.40;80.10
24678;DHT22;12800;53.094;8.778;2023-01-29T11:09:31;6.40;80.20
24678;DHT22;12800;53.094;8.778;2023-01-29T11:12:05;6.50;80.10
24678;DHT22;12800;53.094;8.778;2023-01-29T11:17:16;6.60;79.90
24678;DHT22;12800;53.094;8.778;2023-01-29T11:19:45;6.60;79.70
24678;DHT22;12800;53.094;8.778;2023-01-29T11:22:16;6.60;79.60
24678;DHT22;12800;53.094;8.778;2023-01-29T11:24:42;6.60;79.50
24678;DHT22;12800;53.094;8.778;2023-01-29T11:27:25;6.70;79.40
24678;DHT22;12800;53.094;8.778;2023-01-29T11:29:54;6.80;79.40
24678;DHT22;12800;53.094;8.778;2023-01-29T11:35:03;6.90;79.10
24678;DHT22;12800;53.094;8.778;2023-01-29T11:37:39;6.90;78.90
24678;DHT22;12800;53.094;8.778;2023-01-29T11:43:30;6.90;78.70
24678;DHT22;12800;53.094;8.778;2023-01-29T11:46:04;6.90;78.90
24678;DHT22;12800;53.094;8.778;2023-01-29T11:51:10;6.90;78.90
24678;DHT22;12800;53.094;8.778;2023-01-29T11:53:40;7.00;78.90
24678;DHT22;12800;53.094;8.778;2023-01-29T11:56:42;7.00;78.70
24678;DHT22;12800;53.094;8.778;2023-01-29T11:59:26;7.00;78.70
24678;DHT22;12800;53.094;8.778;2023-01-29T12:01:53;7.10;78.50
24678;DHT22;12800;53.094;8.778;2023-01-29T12:04:21;7.10;78.60
24678;DHT22;12800;53.094;8.778;2023-01-29T12:06:49;7.10;78.40
24678;DHT22;12800;53.094;8.778;2023-01-29T12:09:26;7.00;78.20
24678;DHT22;12800;53.094;8.778;2023-01-29T12:11:53;7.00;78.20
24678;DHT22;12800;53.094;8.778;2023-01-29T12:14:30;7.00;78.20
24678;DHT22;12800;53.094;8.778;2023-01-29T12:17:15;6.90;78.20
24678;DHT22;12800;53.094;8.778;2023-01-29T12:22:16;6.90;78.40
24678;DHT22;12800;53.094;8.778;2023-01-29T12:35:52;6.90;78.60
24678;DHT22;12800;53.094;8.778;2023-01-29T12:38:23;6.90;78.50
24678;DHT22;12800;53.094;8.778;2023-01-29T12:43:20;6.80;78.70
24678;DHT22;12800;53.094;8.778;2023-01-29T12:45:50;6.80;78.80
24678;DHT22;12800;53.094;8.778;2023-01-29T12:48:32;6.80;78.90
24678;DHT22;12800;53.094;8.778;2023-01-29T12:51:25;6.70;78.80
24678;DHT22;12800;53.094;8.778;2023-01-29T12:54:05;6.70;79.10
24678;DHT22;12800;53.094;8.778;2023-01-29T12:56:35;6.70;79.10
24678;DHT22;12800;53.094;8.778;2023-01-29T12:59:24;6.70;78.90
24678;DHT22;12800;53.094;8.778;2023-01-29T13:02:01;6.70;79.00
24678;DHT22;12800;53.094;8.778;2023-01-29T13:04:40;6.70;79.10
24678;DHT22;12800;53.094;8.778;2023-01-29T13:07:16;6.70;79.00
24678;DHT22;12800;53.094;8.778;2023-01-29T13:09:48;6.70;79.00
24678;DHT22;12800;53.094;8.778;2023-01-29T13:12:17;6.60;79.30
24678;DHT22;12800;53.094;8.778;2023-01-29T13:14:59;6.60;79.00
24678;DHT22;12800;53.094;8.778;2023-01-29T13:17:48;6.60;79.00
24678;DHT22;12800;53.094;8.778;2023-01-29T13:20:28;6.60;79.10
24678;DHT22;12800;53.094;8.778;2023-01-29T13:22:58;6.60;79.10
24678;DHT22;12800;53.094;8.778;2023-01-29T13:25:27;6.60;79.10
24678;DHT22;12800;53.094;8.778;2023-01-29T13:27:52;6.60;79.20
24678;DHT22;12800;53.094;8.778;2023-01-29T13:30:29;6.60;79.30
24678;DHT22;12800;53.094;8.778;2023-01-29T13:32:57;6.60;79.40
24678;DHT22;12800;53.094;8.778;2023-01-29T13:35:37;6.70;79.50
24678;DHT22;12800;53.094;8.778;2023-01-29T13:38:04;6.70;79.40
24678;DHT22;12800;53.094;8.778;2023-01-29T13:40:31;6.80;79.50
24678;DHT22;12800;53.094;8.778;2023-01-29T13:42:59;6.80;79.40
24678;DHT22;12800;53.094;8.778;2023-01-29T13:45:34;6.80;79.50
24678;DHT22;12800;53.094;8.778;2023-01-29T13:48:25;6.80;79.50
24678;DHT22;12800;53.094;8.778;2023-01-29T13:50:54;6.80;79.70
24678;DHT22;12800;53.094;8.778;2023-01-29T13:53:37;6.90;79.80
24678;DHT22;12800;53.094;8.778;2023-01-29T13:56:27;6.80;79.60
24678;DHT22;12800;53.094;8.778;2023-01-29T13:58:54;6.90;79.70
24678;DHT22;12800;53.094;8.778;2023-01-29T14:06:50;6.80;79.80
24678;DHT22;12800;53.094;8.778;2023-01-29T14:17:21;6.80;80.00
24678;DHT22;12800;53.094;8.778;2023-01-29T14:20:00;6.80;79.90
24678;DHT22;12800;53.094;8.778;2023-01-29T14:22:29;6.80;80.10
24678;DHT22;12800;53.094;8.778;2023-01-29T14:24:59;6.80;80.00
24678;DHT22;12800;53.094;8.778;2023-01-29T14:27:27;6.80;79.90
24678;DHT22;12800;53.094;8.778;2023-01-29T14:30:02;6.80;79.80
24678;DHT22;12800;53.094;8.778;2023-01-29T14:32:28;6.80;79.80
24678;DHT22;12800;53.094;8.778;2023-01-29T14:35:16;6.80;80.00
24678;DHT22;12800;53.094;8.778;2023-01-29T14:37:51;6.80;80.00
24678;DHT22;12800;53.094;8.778;2023-01-29T14:45:26;6.70;80.50
24678;DHT22;12800;53.094;8.778;2023-01-29T14:58:08;6.50;80.10
24678;DHT22;12800;53.094;8.778;2023-01-29T15:00:38;6.40;80.20
24678;DHT22;12800;53.094;8.778;2023-01-29T15:03:14;6.40;80.30
24678;DHT22;12800;53.094;8.778;2023-01-29T15:05:43;6.40;80.40
24678;DHT22;12800;53.094;8.778;2023-01-29T15:08:37;6.30;80.50
24678;DHT22;12800;53.094;8.778;2023-01-29T15:11:19;6.30;80.60
24678;DHT22;12800;53.094;8.778;2023-01-29T15:14:21;6.30;80.80
24678;DHT22;12800;53.094;8.778;2023-01-29T15:16:59;6.30;80.80
24678;DHT22;12800;53.094;8.778;2023-01-29T15:19:33;6.30;81.00
24678;DHT22;12800;53.094;8.778;2023-01-29T15:24:28;6.20;81.00
24678;DHT22;12800;53.094;8.778;2023-01-29T15:26:54;6.20;81.00
24678;DHT22;12800;53.094;8.778;2023-01-29T15:29:26;6.10;81.20
24678;DHT22;12800;53.094;8.778;2023-01-29T15:31:53;6.10;81.40
24678;DHT22;12800;53.094;8.778;2023-01-29T15:34:19;6.00;81.50
24678;DHT22;12800;53.094;8.778;2023-01-29T15:36:47;6.00;81.70
24678;DHT22;12800;53.094;8.778;2023-01-29T15:39:19;6.00;81.90
24678;DHT22;12800;53.094;8.778;2023-01-29T15:41:46;5.90;81.90
24678;DHT22;12800;53.094;8.778;2023-01-29T15:44:14;5.90;82.10
24678;DHT22;12800;53.094;8.778;2023-01-29T15:46:42;5.80;82.40
24678;DHT22;12800;53.094;8.778;2023-01-29T15:49:14;5.80;82.70
24678;DHT22;12800;53.094;8.778;2023-01-29T15:51:40;5.80;83.00
24678;DHT22;12800;53.094;8.778;2023-01-29T15:54:09;5.70;83.20
24678;DHT22;12800;53.094;8.778;2023-01-29T15:56:40;5.80;83.30
24678;DHT22;12800;53.094;8.778;2023-01-29T15:59:15;5.70;83.40
24678;DHT22;12800;53.094;8.778;2023-01-29T16:01:42;5.70;83.60
24678;DHT22;12800;53.094;8.778;2023-01-29T16:04:16;5.70;83.60
24678;DHT22;12800;53.094;8.778;2023-01-29T16:06:43;5.70;83.60
24678;DHT22;12800;53.094;8.778;2023-01-29T16:09:14;5.70;83.70
24678;DHT22;12800;53.094;8.778;2023-01-29T16:11:42;5.70;83.90
24678;DHT22;12800;53.094;8.778;2023-01-29T16:14:12;5.70;83.80
24678;DHT22;12800;53.094;8.778;2023-01-29T16:16:40;5.70;83.80
24678;DHT22;12800;53.094;8.778;2023-01-29T16:19:26;5.60;83.70
24678;DHT22;12800;53.094;8.778;2023-01-29T16:22:02;5.60;83.90
24678;DHT22;12800;53.094;8.778;2023-01-29T16:24:30;5.60;84.10
24678;DHT22;12800;53.094;8.778;2023-01-29T16:26:58;5.60;84.30
24678;DHT22;12800;53.094;8.778;2023-01-29T16:29:32;5.60;84.30
24678;DHT22;12800;53.094;8.778;2023-01-29T16:31:59;5.50;84.40
24678;DHT22;12800;53.094;8.778;2023-01-29T16:34:45;5.50;84.40
24678;DHT22;12800;53.094;8.778;2023-01-29T16:39:49;5.50;84.80
24678;DHT22;12800;53.094;8.778;2023-01-29T16:44:50;5.50;84.90
24678;DHT22;12800;53.094;8.778;2023-01-29T16:47:35;5.50;85.10
24678;DHT22;12800;53.094;8.778;2023-01-29T16:50:34;5.50;85.20
24678;DHT22;12800;53.094;8.778;2023-01-29T16:53:03;5.50;85.10
24678;DHT22;12800;53.094;8.778;2023-01-29T16:55:38;5.50;85.20
24678;DHT22;12800;53.094;8.778;2023-01-29T16:58:12;5.50;85.30
24678;DHT22;12800;53.094;8.778;2023-01-29T17:00:44;5.50;85.40
24678;DHT22;12800;53.094;8.778;2023-01-29T17:03:11;5.40;85.60
24678;DHT22;12800;53.094;8.778;2023-01-29T17:05:38;5.50;85.90
24678;DHT22;12800;53.094;8.778;2023-01-29T17:08:05;5.50;85.80
24678;DHT22;12800;53.094;8.778;2023-01-29T17:10:31;5.50;85.70
24678;DHT22;12800;53.094;8.778;2023-01-29T17:13:04;5.40;85.70
24678;DHT22;12800;53.094;8.778;2023-01-29T17:17:56;5.40;85.70
24678;DHT22;12800;53.094;8.778;2023-01-29T17:20:22;5.40;85.80
24678;DHT22;12800;53.094;8.778;2023-01-29T17:22:47;5.30;85.60
24678;DHT22;12800;53.094;8.778;2023-01-29T17:25:13;5.30;85.70
24678;DHT22;12800;53.094;8.778;2023-01-29T17:27:40;5.30;86.50
24678;DHT22;12800;53.094;8.778;2023-01-29T17:30:13;5.30;85.90
24678;DHT22;12800;53.094;8.778;2023-01-29T17:32:39;5.30;85.70
24678;DHT22;12800;53.094;8.778;2023-01-29T17:35:05;5.30;85.70
24678;DHT22;12800;53.094;8.778;2023-01-29T17:37:31;5.30;85.70
24678;DHT22;12800;53.094;8.778;2023-01-29T17:39:57;5.20;85.60
24678;DHT22;12800;53.094;8.778;2023-01-29T17:42:23;5.20;85.80
24678;DHT22;12800;53.094;8.778;2023-01-29T17:44:49;5.20;85.80
24678;DHT22;12800;53.094;8.778;2023-01-29T17:47:15;5.20;85.70
24678;DHT22;12800;53.094;8.778;2023-01-29T17:49:40;5.20;85.80
24678;DHT22;12800;53.094;8.778;2023-01-29T17:52:06;5.20;85.90
24678;DHT22;12800;53.094;8.778;2023-01-29T17:54:32;5.20;85.90
24678;DHT22;12800;53.094;8.778;2023-01-29T17:56:58;5.20;85.80
24678;DHT22;12800;53.094;8.778;2023-01-29T17:59:27;5.20;86.70
24678;DHT22;12800;53.094;8.778;2023-01-29T18:01:53;5.30;85.90
24678;DHT22;12800;53.094;8.778;2023-01-29T18:04:19;5.30;85.80
24678;DHT22;12800;53.094;8.778;2023-01-29T18:06:47;5.20;85.80
24678;DHT22;12800;53.094;8.778;2023-01-29T18:09:14;5.30;85.80
24678;DHT22;12800;53.094;8.778;2023-01-29T18:11:41;5.30;85.70
24678;DHT22;12800;53.094;8.778;2023-01-29T18:14:08;5.30;85.60
24678;DHT22;12800;53.094;8.778;2023-01-29T18:16:34;5.30;85.60
24678;DHT22;12800;53.094;8.778;2023-01-29T18:19:08;5.30;85.60
24678;DHT22;12800;53.094;8.778;2023-01-29T18:21:36;5.30;85.50
24678;DHT22;12800;53.094;8.778;2023-01-29T18:24:02;5.20;85.30
24678;DHT22;12800;53.094;8.778;2023-01-29T18:26:28;5.20;85.50
24678;DHT22;12800;53.094;8.778;2023-01-29T18:28:53;5.30;85.60